createdAt,value
2022-08-07T00:01:43.713Z,44.83
2022-08-07T00:04:09.571Z,44.68
2022-08-07T00:06:38.714Z,44.84
2022-08-07T00:09:21.219Z,45.15
2022-08-07T00:11:55.839Z,45.01
2022-08-07T00:14:31.474Z,45.47
2022-08-07T00:17:02.486Z,45.79
2022-08-07T00:20:00.557Z,45.66
2022-08-07T00:22:34.611Z,45.66
2022-08-07T00:25:07.322Z,45.70
2022-08-07T00:27:52.457Z,45.88
2022-08-07T00:30:26.318Z,46.02
2022-08-07T00:32:54.693Z,45.57
2022-08-07T00:35:23.003Z,45.70
2022-08-07T00:37:50.038Z,45.45
2022-08-07T00:40:39.320Z,45.32
2022-08-07T00:43:09.884Z,45.44
2022-08-07T00:45:40.470Z,45.42
2022-08-07T00:48:10.890Z,45.46
2022-08-07T00:50:46.316Z,45.26
2022-08-07T00:53:21.224Z,45.84
2022-08-07T00:56:02.528Z,46.03
2022-08-07T00:58:31.417Z,46.11
2022-08-07T01:00:58.907Z,45.96
2022-08-07T01:03:55.484Z,46.13
2022-08-07T01:06:15.737Z,45.96
2022-08-07T01:08:51.437Z,46.23
2022-08-07T01:12:09.620Z,46.44
2022-08-07T01:14:08.985Z,46.49
2022-08-07T01:16:36.593Z,46.67
2022-08-07T01:19:04.753Z,46.83
2022-08-07T01:21:46.702Z,46.62
2022-08-07T01:24:13.992Z,46.79
2022-08-07T01:26:40.835Z,47.02
2022-08-07T01:29:08.697Z,46.98
2022-08-07T01:31:42.322Z,47.24
2022-08-07T01:34:14.167Z,47.38
2022-08-07T01:36:40.968Z,47.50
2022-08-07T01:39:11.002Z,47.58
2022-08-07T01:41:40.738Z,47.78
2022-08-07T01:44:21.808Z,47.95
2022-08-07T01:46:50.427Z,48.36
2022-08-07T01:49:18.058Z,48.63
2022-08-07T01:52:01.885Z,48.56
2022-08-07T01:54:37.082Z,48.30
2022-08-07T01:57:24.272Z,48.14
2022-08-07T02:00:13.196Z,48.21
2022-08-07T02:03:18.795Z,48.19
2022-08-07T02:05:55.326Z,48.40
2022-08-07T02:08:27.902Z,48.55
2022-08-07T02:10:59.279Z,48.55
2022-08-07T02:13:56.334Z,49.12
2022-08-07T02:16:28.405Z,49.14
2022-08-07T02:19:00.963Z,49.22
2022-08-07T02:21:55.990Z,49.58
2022-08-07T02:24:21.463Z,49.75
2022-08-07T02:26:50.027Z,49.95
2022-08-07T02:29:21.809Z,50.05
2022-08-07T02:31:49.761Z,50.03
2022-08-07T02:34:18.164Z,50.53
2022-08-07T02:36:45.996Z,50.32
2022-08-07T02:39:17.286Z,50.72
2022-08-07T02:42:02.632Z,50.38
2022-08-07T02:44:34.829Z,50.57
2022-08-07T02:47:05.635Z,50.80
2022-08-07T02:49:56.486Z,50.91
2022-08-07T02:52:31.194Z,50.99
2022-08-07T02:55:03.629Z,50.73
2022-08-07T02:57:34.874Z,50.68
2022-08-07T03:00:05.004Z,50.93
2022-08-07T03:02:37.512Z,50.78
2022-08-07T03:05:23.142Z,50.75
2022-08-07T03:08:07.019Z,50.67
2022-08-07T03:10:41.062Z,50.58
2022-08-07T03:13:15.121Z,50.99
2022-08-07T03:15:55.694Z,51.10
2022-08-07T03:18:24.457Z,50.90
2022-08-07T03:21:03.667Z,51.15
2022-08-07T03:23:33.653Z,51.24
2022-08-07T03:26:03.368Z,51.25
2022-08-07T03:28:37.500Z,51.55
2022-08-07T03:31:24.607Z,51.12
2022-08-07T03:33:59.340Z,51.30
2022-08-07T03:36:28.877Z,51.65
2022-08-07T03:39:05.304Z,51.56
2022-08-07T03:41:41.692Z,51.51
2022-08-07T03:44:09.351Z,51.53
2022-08-07T03:46:37.519Z,51.71
2022-08-07T03:49:24.218Z,51.87
2022-08-07T03:52:01.831Z,51.54
2022-08-07T03:54:35.289Z,51.88
2022-08-07T03:57:09.749Z,52.29
2022-08-07T04:00:01.719Z,52.46
2022-08-07T04:02:30.989Z,52.27
2022-08-07T04:04:58.439Z,52.39
2022-08-07T04:07:25.675Z,52.00
2022-08-07T04:10:03.675Z,52.07
2022-08-07T04:12:33.003Z,52.50
2022-08-07T04:15:02.344Z,52.53
2022-08-07T04:18:57.024Z,52.34
2022-08-07T04:20:19.538Z,52.71
2022-08-07T04:22:53.355Z,52.47
2022-08-07T04:25:29.300Z,52.99
2022-08-07T04:28:00.280Z,52.53
2022-08-07T04:30:43.337Z,52.45
2022-08-07T04:33:15.846Z,52.69
2022-08-07T04:35:50.512Z,52.48
2022-08-07T04:38:19.133Z,52.66
2022-08-07T04:40:52.763Z,52.59
2022-08-07T04:44:12.607Z,52.66
2022-08-07T04:46:25.957Z,53.05
2022-08-07T04:49:24.566Z,52.39
2022-08-07T04:52:14.991Z,53.07
2022-08-07T04:55:14.950Z,52.73
2022-08-07T04:58:33.757Z,52.56
2022-08-07T05:01:13.581Z,52.46
2022-08-07T05:04:07.556Z,52.38
2022-08-07T05:06:51.769Z,52.27
2022-08-07T05:09:45.646Z,52.24
2022-08-07T05:12:27.353Z,52.05
2022-08-07T05:15:21.580Z,52.25
2022-08-07T05:17:57.284Z,51.84
2022-08-07T05:20:34.107Z,51.52
2022-08-07T05:23:15.756Z,51.53
2022-08-07T05:26:13.420Z,51.35
2022-08-07T05:28:35.076Z,51.73
2022-08-07T05:31:03.691Z,51.19
2022-08-07T05:33:35.577Z,50.81
2022-08-07T05:36:06.931Z,50.59
2022-08-07T05:39:01.013Z,50.52
2022-08-07T05:41:29.017Z,50.67
2022-08-07T05:44:15.550Z,50.48
2022-08-07T05:46:56.578Z,50.64
2022-08-07T05:49:23.704Z,50.41
2022-08-07T05:51:50.254Z,50.25
2022-08-07T05:54:30.927Z,50.16
2022-08-07T05:57:04.953Z,49.99
2022-08-07T05:59:46.579Z,50.33
2022-08-07T06:02:29.109Z,49.69
2022-08-07T06:05:03.624Z,49.59
2022-08-07T06:08:29.445Z,48.60
2022-08-07T06:10:18.575Z,48.37
2022-08-07T06:12:46.094Z,49.05
2022-08-07T06:15:16.078Z,48.73
2022-08-07T06:17:53.458Z,48.74
2022-08-07T06:20:31.671Z,49.20
2022-08-07T06:23:46.174Z,49.30
2022-08-07T06:25:58.565Z,49.39
2022-08-07T06:28:27.353Z,48.98
2022-08-07T06:30:56.100Z,48.67
2022-08-07T06:33:24.297Z,49.27
2022-08-07T06:36:12.478Z,48.95
2022-08-07T06:38:38.166Z,48.71
2022-08-07T06:41:12.848Z,48.74
2022-08-07T06:43:46.174Z,48.78
2022-08-07T06:46:15.416Z,49.32
2022-08-07T06:48:58.334Z,48.86
2022-08-07T06:51:33.336Z,48.52
2022-08-07T06:55:29.550Z,48.56
2022-08-07T06:56:51.239Z,47.88
2022-08-07T07:00:14.421Z,48.12
2022-08-07T07:02:13.197Z,49.01
2022-08-07T07:04:59.674Z,48.54
2022-08-07T07:07:59.840Z,48.65
2022-08-07T07:10:14.988Z,48.66
2022-08-07T07:12:53.840Z,47.63
2022-08-07T07:15:35.767Z,48.16
2022-08-07T07:18:05.529Z,47.63
2022-08-07T07:20:36.968Z,48.58
2022-08-07T07:24:08.377Z,47.99
2022-08-07T07:26:33.530Z,48.41
2022-08-07T07:29:55.964Z,47.32
2022-08-07T07:32:03.143Z,47.30
2022-08-07T07:34:32.108Z,47.52
2022-08-07T07:37:14.461Z,47.17
2022-08-07T07:39:54.766Z,47.36
2022-08-07T07:42:25.747Z,46.91
2022-08-07T07:45:02.315Z,46.76
2022-08-07T07:47:30.181Z,46.59
2022-08-07T07:50:35.521Z,46.07
2022-08-07T07:53:00.928Z,46.31
2022-08-07T07:55:37.531Z,45.91
2022-08-07T07:58:14.205Z,45.84
2022-08-07T08:00:53.563Z,45.33
2022-08-07T08:04:06.107Z,45.45
2022-08-07T08:06:11.586Z,44.72
2022-08-07T08:08:42.053Z,44.60
2022-08-07T08:11:16.383Z,44.28
2022-08-07T08:13:53.144Z,44.17
2022-08-07T08:16:26.340Z,44.41
2022-08-07T08:18:58.209Z,43.87
2022-08-07T08:22:00.588Z,43.89
2022-08-07T08:25:04.456Z,43.37
2022-08-07T08:27:55.877Z,43.48
2022-08-07T08:30:24.399Z,43.39
2022-08-07T08:32:54.233Z,43.39
2022-08-07T08:35:28.648Z,43.13
2022-08-07T08:38:03.796Z,42.24
2022-08-07T08:40:40.928Z,41.63
2022-08-07T08:43:58.659Z,41.89
2022-08-07T08:46:32.735Z,41.50
2022-08-07T08:49:10.213Z,41.21
2022-08-07T08:52:14.128Z,41.25
2022-08-07T08:55:10.194Z,40.70
2022-08-07T08:57:52.901Z,40.24
2022-08-07T09:00:21.472Z,40.11
2022-08-07T09:03:13.523Z,39.71
2022-08-07T09:05:43.539Z,39.56
2022-08-07T09:08:29.082Z,38.82
2022-08-07T09:11:24.643Z,38.64
2022-08-07T09:14:15.402Z,38.60
2022-08-07T09:16:54.533Z,38.33
2022-08-07T09:19:53.118Z,38.18
2022-08-07T09:24:32.666Z,38.70
2022-08-07T09:26:10.750Z,37.17
2022-08-07T09:30:04.032Z,37.74
2022-08-07T09:31:49.220Z,37.31
2022-08-07T09:34:38.067Z,37.10
2022-08-07T09:37:14.851Z,36.82
2022-08-07T09:40:04.103Z,36.45
2022-08-07T09:44:03.185Z,36.51
2022-08-07T09:47:27.625Z,35.87
2022-08-07T09:50:01.910Z,35.78
2022-08-07T09:52:34.311Z,35.61
2022-08-07T09:55:01.523Z,35.50
2022-08-07T09:57:53.867Z,35.08
2022-08-07T10:00:29.939Z,34.96
2022-08-07T10:03:08.370Z,35.23
2022-08-07T10:06:24.441Z,35.13
2022-08-07T10:09:15.769Z,34.43
2022-08-07T10:12:11.819Z,34.20
2022-08-07T10:15:05.324Z,34.26
2022-08-07T10:18:00.274Z,33.88
2022-08-07T10:20:35.355Z,33.85
2022-08-07T10:24:04.933Z,33.45
2022-08-07T10:27:06.675Z,33.09
2022-08-07T10:30:12.430Z,33.29
2022-08-07T10:33:08.410Z,32.31
2022-08-07T10:36:11.390Z,33.10
2022-08-07T10:38:52.258Z,32.60
2022-08-07T10:41:52.248Z,32.88
2022-08-07T10:44:45.655Z,32.85
2022-08-07T10:47:27.043Z,31.94
2022-08-07T10:50:19.082Z,32.57
2022-08-07T10:53:11.370Z,32.03
2022-08-07T10:55:57.273Z,32.68
2022-08-07T10:59:01.287Z,31.58
2022-08-07T11:01:35.734Z,31.71
2022-08-07T11:04:31.959Z,31.69
2022-08-07T11:07:14.971Z,31.77
2022-08-07T11:10:09.593Z,31.15
2022-08-07T11:12:49.072Z,30.99
2022-08-07T11:15:26.322Z,31.16
2022-08-07T11:18:29.434Z,30.86
2022-08-07T11:21:06.472Z,31.08
2022-08-07T11:23:45.426Z,30.98
2022-08-07T11:26:48.086Z,31.14
2022-08-07T11:29:43.047Z,30.73
2022-08-07T11:32:34.398Z,30.89
2022-08-07T11:35:11.977Z,30.58
2022-08-07T11:37:58.057Z,31.00
2022-08-07T11:40:58.149Z,30.70
2022-08-07T11:44:10.858Z,30.36
2022-08-07T11:46:49.105Z,30.48
2022-08-07T11:50:18.611Z,30.43
2022-08-07T11:52:51.924Z,30.59
2022-08-07T11:56:13.953Z,30.46
2022-08-07T11:59:03.571Z,30.38
2022-08-07T12:01:59.851Z,30.24
2022-08-07T12:04:40.226Z,30.55
2022-08-07T12:07:27.878Z,30.17
2022-08-07T12:10:17.194Z,30.04
2022-08-07T12:12:55.175Z,29.80
2022-08-07T12:15:46.264Z,29.76
2022-08-07T12:18:29.909Z,29.97
2022-08-07T12:21:03.540Z,29.48
2022-08-07T12:24:06.983Z,29.67
2022-08-07T12:26:49.374Z,29.55
2022-08-07T12:29:38.420Z,29.01
2022-08-07T12:32:19.796Z,29.51
2022-08-07T12:34:55.864Z,29.39
2022-08-07T12:37:28.448Z,29.08
2022-08-07T12:40:43.693Z,29.24
2022-08-07T12:43:09.337Z,28.73
2022-08-07T12:45:57.799Z,29.21
2022-08-07T12:48:41.444Z,29.18
2022-08-07T12:51:24.336Z,29.19
2022-08-07T12:54:36.459Z,29.06
2022-08-07T12:57:09.547Z,29.42
2022-08-07T12:59:54.366Z,28.93
2022-08-07T13:02:33.069Z,28.49
2022-08-07T13:06:03.332Z,28.54
2022-08-07T13:08:38.652Z,28.64
2022-08-07T13:11:31.329Z,28.14
2022-08-07T13:14:29.224Z,28.06
2022-08-07T13:17:39.767Z,28.07
2022-08-07T13:20:33.937Z,28.34
2022-08-07T13:24:01.057Z,28.63
2022-08-07T13:26:18.263Z,28.55
2022-08-07T13:28:58.327Z,28.61
2022-08-07T13:31:57.657Z,27.84
2022-08-07T13:34:35.835Z,27.80
2022-08-07T13:37:40.726Z,27.98
2022-08-07T13:40:33.990Z,27.23
2022-08-07T13:43:13.381Z,27.59
2022-08-07T13:46:12.346Z,27.96
2022-08-07T13:48:38.394Z,27.92
2022-08-07T13:51:27.248Z,28.31
2022-08-07T13:54:01.517Z,27.51
2022-08-07T13:56:35.517Z,27.90
2022-08-07T13:59:17.860Z,27.94
2022-08-07T14:02:04.324Z,27.39
2022-08-07T14:04:35.825Z,27.17
2022-08-07T14:07:09.463Z,27.08
2022-08-07T14:10:00.890Z,26.97
2022-08-07T14:12:54.898Z,26.47
2022-08-07T14:15:35.090Z,27.03
2022-08-07T14:18:27.734Z,27.21
2022-08-07T14:22:01.366Z,26.46
2022-08-07T14:24:05.239Z,26.68
2022-08-07T14:26:50.287Z,26.67
2022-08-07T14:30:08.082Z,26.71
2022-08-07T14:32:12.334Z,27.11
2022-08-07T14:34:46.403Z,27.18
2022-08-07T14:37:17.451Z,27.26
2022-08-07T14:40:16.211Z,26.53
2022-08-07T14:42:35.704Z,26.72
2022-08-07T14:45:25.471Z,26.36
2022-08-07T14:48:19.782Z,27.10
2022-08-07T14:51:00.166Z,26.41
2022-08-07T14:54:09.847Z,26.68
2022-08-07T14:59:13.727Z,26.52
2022-08-07T15:02:33.062Z,26.83
2022-08-07T15:05:02.180Z,26.44
2022-08-07T15:07:47.359Z,26.41
2022-08-07T15:10:19.652Z,26.75
2022-08-07T15:12:54.913Z,26.62
2022-08-07T15:15:40.600Z,26.66
2022-08-07T15:18:33.618Z,25.95
2022-08-07T15:26:49.522Z,26.28
2022-08-07T15:30:09.323Z,26.10
2022-08-07T15:32:11.750Z,26.94
2022-08-07T15:38:17.620Z,25.94
2022-08-07T15:40:34.316Z,27.11
2022-08-07T15:43:53.687Z,26.45
2022-08-07T15:46:32.251Z,26.36
2022-08-07T15:49:12.781Z,26.52
2022-08-07T15:54:39.255Z,26.15
2022-08-07T15:57:10.808Z,26.79
2022-08-07T15:59:56.644Z,27.11
2022-08-07T16:02:29.285Z,26.75
2022-08-07T16:05:15.669Z,26.83
2022-08-07T16:08:30.479Z,27.08
2022-08-07T16:10:36.692Z,27.15
2022-08-07T16:13:57.645Z,27.17
2022-08-07T16:16:49.720Z,28.05
2022-08-07T16:19:58.851Z,28.16
2022-08-07T16:22:58.113Z,28.28
2022-08-07T16:26:05.086Z,28.44
2022-08-07T16:30:05.456Z,28.46
2022-08-07T16:31:57.819Z,28.03
2022-08-07T16:34:49.675Z,28.34
2022-08-07T16:38:09.197Z,28.54
2022-08-07T16:41:02.246Z,28.38
2022-08-07T16:44:03.760Z,28.27
2022-08-07T16:47:06.008Z,28.37
2022-08-07T16:50:28.789Z,28.40
2022-08-07T16:52:52.067Z,28.31
2022-08-07T16:55:47.297Z,28.26
2022-08-07T16:59:02.213Z,28.69
2022-08-07T17:01:22.807Z,28.34
2022-08-07T17:04:25.070Z,28.48
2022-08-07T17:07:03.305Z,28.50
2022-08-07T17:10:06.939Z,28.10
2022-08-07T17:12:53.257Z,28.38
2022-08-07T17:15:44.260Z,28.45
2022-08-07T17:18:37.738Z,28.23
2022-08-07T17:21:19.023Z,28.14
2022-08-07T17:23:54.113Z,28.18
2022-08-07T17:26:55.333Z,28.64
2022-08-07T17:30:16.160Z,28.52
2022-08-07T17:32:51.983Z,28.71
2022-08-07T17:35:50.914Z,28.61
2022-08-07T17:38:39.614Z,28.38
2022-08-07T17:42:04.843Z,27.97
2022-08-07T17:44:34.047Z,28.84
2022-08-07T17:47:16.956Z,28.42
2022-08-07T17:50:01.778Z,27.09
2022-08-07T17:52:44.649Z,25.48
2022-08-07T17:56:00.440Z,24.28
2022-08-07T17:58:30.133Z,23.21
2022-08-07T18:00:59.526Z,23.02
2022-08-07T18:04:04.110Z,22.77
2022-08-07T18:06:37.237Z,23.81
2022-08-07T18:09:08.711Z,25.61
2022-08-07T18:12:16.166Z,26.48
2022-08-07T18:14:44.966Z,27.29
2022-08-07T18:18:46.768Z,28.03
2022-08-07T18:21:11.032Z,27.78
2022-08-07T18:23:50.742Z,28.47
2022-08-07T18:26:45.840Z,28.49
2022-08-07T18:30:04.256Z,28.66
2022-08-07T18:33:00.253Z,28.76
2022-08-07T18:36:00.948Z,28.71
2022-08-07T18:38:56.754Z,28.99
2022-08-07T18:41:44.697Z,28.62
2022-08-07T18:45:40.338Z,29.11
2022-08-07T18:48:05.423Z,28.86
2022-08-07T18:50:47.577Z,29.36
2022-08-07T18:53:57.372Z,28.93
2022-08-07T18:56:39.696Z,29.55
2022-08-07T18:59:47.309Z,29.80
2022-08-07T19:02:52.499Z,29.87
2022-08-07T19:06:02.634Z,29.87
2022-08-07T19:08:28.936Z,29.80
2022-08-07T19:11:36.731Z,29.82
2022-08-07T19:14:24.027Z,29.95
2022-08-07T19:17:07.939Z,29.54
2022-08-07T19:20:29.209Z,30.40
2022-08-07T19:23:18.390Z,29.82
2022-08-07T19:26:22.770Z,30.27
2022-08-07T19:30:53.876Z,30.31
2022-08-07T19:31:59.882Z,30.26
2022-08-07T19:34:32.433Z,30.33
2022-08-07T19:37:10.336Z,31.18
2022-08-07T19:39:57.976Z,30.87
2022-08-07T19:42:30.839Z,30.92
2022-08-07T19:45:09.551Z,31.01
2022-08-07T19:47:42.190Z,31.16
2022-08-07T19:50:41.417Z,31.45
2022-08-07T19:52:59.120Z,31.78
2022-08-07T19:55:58.083Z,32.04
2022-08-07T19:58:18.505Z,31.77
2022-08-07T20:00:56.839Z,31.82
2022-08-07T20:03:34.646Z,32.10
2022-08-07T20:06:05.101Z,32.37
2022-08-07T20:08:35.903Z,32.30
2022-08-07T20:11:15.010Z,32.59
2022-08-07T20:13:56.450Z,32.60
2022-08-07T20:16:35.890Z,32.95
2022-08-07T20:19:10.405Z,32.77
2022-08-07T20:21:42.092Z,33.03
2022-08-07T20:24:19.438Z,33.64
2022-08-07T20:26:54.607Z,33.69
2022-08-07T20:29:47.659Z,33.66
2022-08-07T20:32:22.942Z,33.82
2022-08-07T20:34:57.540Z,33.68
2022-08-07T20:37:29.547Z,33.98
2022-08-07T20:40:05.083Z,34.12
2022-08-07T20:42:56.091Z,33.89
2022-08-07T20:45:33.721Z,34.17
2022-08-07T20:48:28.860Z,34.54
2022-08-07T20:51:01.609Z,34.99
2022-08-07T20:54:03.165Z,34.46
2022-08-07T20:56:25.959Z,34.63
2022-08-07T20:58:55.922Z,34.92
2022-08-07T21:01:45.919Z,35.09
2022-08-07T21:04:22.799Z,35.42
2022-08-07T21:06:53.555Z,34.94
2022-08-07T21:09:27.978Z,34.83
2022-08-07T21:11:57.640Z,34.68
2022-08-07T21:14:34.237Z,35.46
2022-08-07T21:18:00.939Z,35.55
2022-08-07T21:20:05.129Z,35.64
2022-08-07T21:22:45.177Z,35.53
2022-08-07T21:25:29.158Z,35.70
2022-08-07T21:28:02.612Z,35.44
2022-08-07T21:30:39.237Z,35.40
2022-08-07T21:33:11.535Z,36.14
2022-08-07T21:36:05.023Z,35.52
2022-08-07T21:39:46.278Z,35.83
2022-08-07T21:42:42.555Z,35.69
2022-08-07T21:46:05.437Z,36.04
2022-08-07T21:48:41.442Z,36.14
2022-08-07T21:51:32.909Z,36.20
2022-08-07T21:54:49.655Z,36.20
2022-08-07T21:57:31.514Z,36.62
2022-08-07T22:00:22.750Z,36.60
2022-08-07T22:03:09.484Z,36.95
2022-08-07T22:06:06.287Z,36.72
2022-08-07T22:09:06.894Z,37.02
2022-08-07T22:11:52.900Z,37.02
2022-08-07T22:14:36.263Z,37.31
2022-08-07T22:17:05.948Z,37.57
2022-08-07T22:19:57.289Z,37.10
2022-08-07T22:22:30.078Z,37.23
2022-08-07T22:25:10.961Z,37.43
2022-08-07T22:28:07.329Z,37.75
2022-08-07T22:30:53.224Z,37.40
2022-08-07T22:33:52.829Z,38.12
2022-08-07T22:36:29.473Z,38.08
2022-08-07T22:39:04.533Z,37.99
2022-08-07T22:42:04.141Z,38.31
2022-08-07T22:44:32.798Z,38.38
2022-08-07T22:47:16.945Z,38.22
2022-08-07T22:50:08.482Z,38.56
2022-08-07T22:52:56.249Z,38.60
2022-08-07T22:55:57.030Z,38.87
2022-08-07T22:58:24.880Z,38.92
2022-08-07T23:01:09.301Z,39.06
2022-08-07T23:04:03.663Z,39.52
2022-08-07T23:06:56.917Z,39.41
2022-08-07T23:10:06.107Z,39.68
2022-08-07T23:12:34.071Z,40.21
2022-08-07T23:15:07.149Z,40.15
2022-08-07T23:18:09.266Z,39.92
2022-08-07T23:21:03.003Z,40.38
2022-08-07T23:24:05.233Z,40.86
2022-08-07T23:26:57.679Z,40.77
2022-08-07T23:30:36.346Z,40.69
2022-08-07T23:34:34.748Z,41.19
2022-08-07T23:36:17.253Z,41.12
2022-08-07T23:38:55.599Z,41.16
2022-08-07T23:42:04.894Z,41.31
2022-08-07T23:45:33.207Z,41.09
2022-08-07T23:48:22.015Z,41.31
2022-08-07T23:51:00.808Z,41.58
2022-08-07T23:53:51.632Z,41.88
2022-08-07T23:56:56.539Z,42.32
